createdAt,value
2022-10-17T00:01:06.468Z,20.75
2022-10-17T00:03:37.008Z,20.95
2022-10-17T00:06:10.640Z,22.58
2022-10-17T00:08:39.148Z,22.23
2022-10-17T00:11:13.196Z,22.20
2022-10-17T00:13:46.037Z,22.38
2022-10-17T00:16:13.137Z,20.07
2022-10-17T00:18:40.480Z,20.38
2022-10-17T00:21:16.673Z,21.38
2022-10-17T00:23:43.699Z,21.05
2022-10-17T00:26:10.802Z,21.15
2022-10-17T00:28:40.891Z,21.17
2022-10-17T00:31:08.258Z,20.83
2022-10-17T00:33:36.003Z,21.00
2022-10-17T00:36:26.556Z,20.90
2022-10-17T00:38:57.223Z,21.55
2022-10-17T00:41:29.933Z,21.83
2022-10-17T00:44:08.520Z,20.45
2022-10-17T00:46:39.678Z,20.73
2022-10-17T00:49:12.761Z,21.10
2022-10-17T00:51:49.884Z,22.50
2022-10-17T00:54:19.616Z,21.63
2022-10-17T00:56:48.194Z,20.92
2022-10-17T00:59:25.012Z,20.13
2022-10-17T01:02:02.273Z,21.05
2022-10-17T01:04:29.191Z,20.67
2022-10-17T01:06:56.178Z,21.38
2022-10-17T01:09:25.260Z,20.23
2022-10-17T01:12:11.506Z,20.08
2022-10-17T01:15:09.037Z,19.80
2022-10-17T01:17:43.330Z,20.98
2022-10-17T01:20:36.048Z,19.98
2022-10-17T01:23:26.370Z,19.98
2022-10-17T01:26:18.904Z,19.77
2022-10-17T01:28:56.028Z,23.05
2022-10-17T01:31:34.666Z,21.80
2022-10-17T01:34:21.594Z,21.17
2022-10-17T01:37:15.078Z,18.98
2022-10-17T01:40:05.413Z,19.67
2022-10-17T01:42:50.817Z,19.17
2022-10-17T01:45:44.335Z,18.35
2022-10-17T01:48:39.719Z,19.80
2022-10-17T01:51:17.168Z,19.55
2022-10-17T01:53:52.404Z,19.20
2022-10-17T01:56:23.423Z,19.17
2022-10-17T01:59:15.416Z,20.67
2022-10-17T02:01:53.145Z,19.55
2022-10-17T02:04:21.851Z,19.25
2022-10-17T02:06:48.845Z,19.75
2022-10-17T02:09:24.842Z,18.98
2022-10-17T02:12:26.248Z,20.25
2022-10-17T02:15:17.099Z,20.40
2022-10-17T02:18:03.020Z,19.55
2022-10-17T02:20:38.146Z,34.38
2022-10-17T02:23:14.242Z,20.45
2022-10-17T02:26:22.787Z,20.08
2022-10-17T02:29:10.424Z,19.05
2022-10-17T02:31:49.076Z,19.58
2022-10-17T02:34:19.925Z,18.63
2022-10-17T02:36:52.011Z,18.73
2022-10-17T02:39:23.668Z,19.02
2022-10-17T02:41:52.666Z,20.13
2022-10-17T02:44:23.148Z,18.85
2022-10-17T02:47:04.147Z,18.13
2022-10-17T02:49:36.847Z,18.63
2022-10-17T02:52:12.668Z,18.15
2022-10-17T02:54:52.986Z,19.10
2022-10-17T02:57:37.385Z,19.15
2022-10-17T03:00:07.825Z,18.92
2022-10-17T03:03:19.922Z,18.42
2022-10-17T03:05:47.957Z,17.20
2022-10-17T03:08:16.022Z,19.35
2022-10-17T03:10:43.997Z,19.10
2022-10-17T03:13:20.975Z,18.55
2022-10-17T03:15:49.005Z,18.33
2022-10-17T03:18:16.023Z,18.00
2022-10-17T03:20:43.053Z,19.17
2022-10-17T03:23:10.943Z,17.42
2022-10-17T03:25:37.973Z,18.83
2022-10-17T03:28:05.794Z,18.25
2022-10-17T03:30:33.326Z,18.63
2022-10-17T03:33:01.446Z,19.52
2022-10-17T03:35:28.595Z,17.60
2022-10-17T03:37:56.494Z,17.98
2022-10-17T03:40:23.566Z,18.20
2022-10-17T03:42:54.675Z,18.95
2022-10-17T03:45:21.567Z,18.50
2022-10-17T03:47:48.475Z,18.15
2022-10-17T03:50:16.467Z,18.83
2022-10-17T03:52:48.555Z,17.80
2022-10-17T03:55:16.512Z,18.13
2022-10-17T03:57:45.746Z,17.42
2022-10-17T04:00:13.405Z,17.38
2022-10-17T04:02:40.305Z,18.10
2022-10-17T04:05:08.082Z,18.27
2022-10-17T04:07:37.205Z,18.85
2022-10-17T04:10:05.227Z,18.30
2022-10-17T04:12:32.458Z,18.50
2022-10-17T04:15:00.502Z,18.40
2022-10-17T04:17:27.431Z,18.38
2022-10-17T04:20:00.658Z,17.85
2022-10-17T04:22:29.103Z,19.17
2022-10-17T04:24:56.427Z,18.40
2022-10-17T04:27:23.391Z,18.58
2022-10-17T04:29:50.437Z,19.25
2022-10-17T04:32:17.607Z,18.40
2022-10-17T04:34:44.620Z,18.00
2022-10-17T04:37:12.612Z,19.15
2022-10-17T04:39:39.518Z,18.30
2022-10-17T04:42:08.601Z,17.15
2022-10-17T04:44:35.994Z,18.98
2022-10-17T04:47:04.014Z,18.50
2022-10-17T04:49:32.037Z,18.95
2022-10-17T04:52:00.107Z,17.85
2022-10-17T04:54:27.046Z,19.08
2022-10-17T04:56:56.010Z,18.33
2022-10-17T04:59:22.980Z,20.25
2022-10-17T05:01:50.979Z,19.42
2022-10-17T05:04:22.381Z,18.25
2022-10-17T05:09:21.758Z,18.50
2022-10-17T05:11:49.715Z,18.25
2022-10-17T05:14:19.765Z,18.08
2022-10-17T05:16:46.756Z,18.58
2022-10-17T05:19:14.688Z,18.90
2022-10-17T05:21:42.680Z,19.08
2022-10-17T05:24:11.953Z,18.85
2022-10-17T05:26:38.940Z,18.85
2022-10-17T05:29:06.034Z,18.25
2022-10-17T05:31:34.051Z,19.50
2022-10-17T05:34:02.874Z,18.23
2022-10-17T05:36:31.083Z,19.17
2022-10-17T05:38:58.035Z,18.33
2022-10-17T05:41:25.068Z,19.08
2022-10-17T05:43:51.942Z,18.50
2022-10-17T05:46:18.901Z,17.48
2022-10-17T05:48:45.958Z,19.50
2022-10-17T05:51:14.074Z,18.48
2022-10-17T05:53:42.473Z,17.48
2022-10-17T05:56:11.523Z,18.45
2022-10-17T05:58:50.921Z,19.17
2022-10-17T06:01:19.794Z,18.33
2022-10-17T06:03:47.036Z,18.70
2022-10-17T06:06:15.083Z,18.27
2022-10-17T06:08:42.434Z,19.13
2022-10-17T06:11:12.600Z,17.67
2022-10-17T06:13:40.202Z,18.65
2022-10-17T06:16:07.671Z,18.40
2022-10-17T06:18:35.752Z,17.23
2022-10-17T06:21:05.791Z,17.90
2022-10-17T06:23:33.254Z,18.10
2022-10-17T06:26:02.279Z,17.17
2022-10-17T06:28:29.559Z,18.75
2022-10-17T06:30:56.631Z,17.63
2022-10-17T06:33:24.049Z,17.52
2022-10-17T06:35:57.858Z,17.15
2022-10-17T06:40:54.598Z,17.45
2022-10-17T06:43:27.001Z,16.60
2022-10-17T06:45:55.071Z,17.20
2022-10-17T06:48:22.058Z,17.48
2022-10-17T06:50:49.098Z,16.77
2022-10-17T06:53:16.076Z,16.33
2022-10-17T06:55:43.317Z,16.85
2022-10-17T06:58:10.301Z,16.38
2022-10-17T07:00:38.428Z,17.10
2022-10-17T07:03:05.406Z,16.83
2022-10-17T07:05:32.376Z,16.75
2022-10-17T07:07:59.279Z,17.02
2022-10-17T07:10:27.247Z,16.88
2022-10-17T07:12:54.102Z,17.05
2022-10-17T07:15:21.015Z,17.23
2022-10-17T07:17:51.084Z,16.92
2022-10-17T07:20:17.983Z,17.42
2022-10-17T07:22:44.921Z,16.27
2022-10-17T07:25:11.854Z,17.00
2022-10-17T07:27:38.786Z,17.17
2022-10-17T07:30:06.333Z,16.52
2022-10-17T07:32:33.303Z,18.02
2022-10-17T07:35:00.242Z,16.45
2022-10-17T07:37:27.391Z,16.33
2022-10-17T07:39:54.762Z,17.40
2022-10-17T07:42:21.663Z,17.92
2022-10-17T07:44:48.592Z,15.85
2022-10-17T07:47:15.536Z,16.85
2022-10-17T07:49:44.316Z,17.52
2022-10-17T07:52:12.897Z,16.77
2022-10-17T07:54:40.033Z,16.42
2022-10-17T07:57:10.092Z,18.80
2022-10-17T07:59:38.567Z,16.30
2022-10-17T08:02:05.949Z,17.50
2022-10-17T08:04:34.108Z,17.05
2022-10-17T08:07:18.383Z,16.27
2022-10-17T08:12:15.168Z,16.27
2022-10-17T08:14:42.932Z,17.15
2022-10-17T08:17:10.536Z,16.67
2022-10-17T08:19:41.030Z,16.08
2022-10-17T08:22:08.453Z,16.90
2022-10-17T08:24:35.441Z,16.15
2022-10-17T08:27:02.699Z,16.33
2022-10-17T08:29:29.770Z,16.35
2022-10-17T08:32:00.918Z,16.77
2022-10-17T08:34:28.937Z,16.10
2022-10-17T08:36:56.049Z,17.35
2022-10-17T08:39:22.981Z,15.88
2022-10-17T08:42:09.376Z,16.70
2022-10-17T08:44:50.205Z,16.58
2022-10-17T08:47:29.797Z,16.88
2022-10-17T08:50:03.236Z,18.88
2022-10-17T08:52:49.418Z,17.75
2022-10-17T08:55:49.667Z,16.55
2022-10-17T08:58:26.323Z,15.52
2022-10-17T09:01:02.243Z,15.18
2022-10-17T09:03:38.622Z,14.52
2022-10-17T09:06:39.116Z,13.90
2022-10-17T09:09:11.998Z,14.70
2022-10-17T09:11:39.014Z,15.43
2022-10-17T09:14:43.419Z,14.98
2022-10-17T09:17:28.873Z,14.38
2022-10-17T09:20:05.354Z,14.27
2022-10-17T09:22:45.161Z,13.95
2022-10-17T09:25:16.054Z,15.15
2022-10-17T09:27:50.342Z,15.00
2022-10-17T09:30:46.400Z,16.25
2022-10-17T09:33:35.612Z,13.75
2022-10-17T09:36:14.707Z,14.73
2022-10-17T09:38:45.936Z,14.90
2022-10-17T09:41:44.440Z,14.88
2022-10-17T09:44:22.256Z,18.25
2022-10-17T09:47:18.339Z,16.83
2022-10-17T09:49:47.494Z,14.95
2022-10-17T09:52:18.842Z,15.75
2022-10-17T09:54:56.320Z,16.70
2022-10-17T09:57:23.346Z,16.75
2022-10-17T10:00:06.236Z,15.82
2022-10-17T10:02:36.657Z,16.37
2022-10-17T10:05:17.198Z,16.92
2022-10-17T10:08:01.871Z,15.40
2022-10-17T10:10:30.448Z,15.80
2022-10-17T10:13:20.462Z,14.60
2022-10-17T10:15:50.212Z,15.45
2022-10-17T10:18:33.312Z,15.00
2022-10-17T10:21:08.611Z,15.02
2022-10-17T10:23:40.624Z,15.35
2022-10-17T10:26:30.355Z,15.27
2022-10-17T10:29:01.342Z,16.02
2022-10-17T10:31:38.865Z,14.55
2022-10-17T10:34:27.668Z,15.65
2022-10-17T10:36:57.421Z,15.00
2022-10-17T10:39:24.348Z,15.38
2022-10-17T10:41:51.394Z,15.20
2022-10-17T10:44:24.224Z,14.70
2022-10-17T10:47:17.579Z,13.65
2022-10-17T10:49:45.949Z,14.95
2022-10-17T10:52:22.814Z,14.48
2022-10-17T10:55:18.056Z,14.20
2022-10-17T10:57:47.940Z,13.10
2022-10-17T11:00:23.166Z,13.07
2022-10-17T11:03:16.651Z,13.60
2022-10-17T11:05:49.872Z,13.48
2022-10-17T11:08:25.939Z,13.98
2022-10-17T11:11:18.409Z,13.55
2022-10-17T11:13:53.383Z,14.38
2022-10-17T11:16:29.286Z,11.60
2022-10-17T11:19:07.609Z,11.40
2022-10-17T11:21:48.472Z,10.90
2022-10-17T11:24:39.934Z,11.30
2022-10-17T11:27:08.490Z,11.35
2022-10-17T11:29:39.769Z,11.43
2022-10-17T11:32:18.337Z,10.82
2022-10-17T11:34:50.172Z,9.77
2022-10-17T11:37:26.731Z,9.07
2022-10-17T11:39:56.195Z,9.50
2022-10-17T11:42:52.073Z,8.98
2022-10-17T11:45:23.879Z,9.55
2022-10-17T11:47:59.697Z,9.02
2022-10-17T11:53:41.212Z,9.03
2022-10-17T11:56:11.517Z,9.20
2022-10-17T11:58:57.019Z,9.07
2022-10-17T12:01:47.195Z,8.60
2022-10-17T12:04:39.575Z,8.60
2022-10-17T12:07:12.892Z,8.13
2022-10-17T12:09:58.798Z,8.85
2022-10-17T12:12:30.344Z,8.25
2022-10-17T12:15:25.657Z,8.40
2022-10-17T12:18:17.469Z,8.75
2022-10-17T12:20:56.892Z,8.35
2022-10-17T12:23:32.455Z,8.48
2022-10-17T12:26:05.865Z,7.90
2022-10-17T12:28:39.521Z,8.82
2022-10-17T12:31:13.263Z,8.85
2022-10-17T12:34:01.471Z,8.60
2022-10-17T12:36:28.690Z,8.35
2022-10-17T12:39:04.585Z,7.13
2022-10-17T12:41:45.025Z,7.85
2022-10-17T12:44:15.242Z,7.93
2022-10-17T12:47:08.267Z,8.43
2022-10-17T12:49:48.801Z,6.90
2022-10-17T12:52:25.785Z,7.68
2022-10-17T12:55:12.034Z,7.78
2022-10-17T12:57:51.962Z,8.65
2022-10-17T13:00:18.866Z,8.00
2022-10-17T13:02:46.623Z,7.57
2022-10-17T13:05:46.152Z,8.15
2022-10-17T13:08:22.508Z,7.68
2022-10-17T13:10:52.879Z,7.30
2022-10-17T13:13:26.759Z,7.63
2022-10-17T13:15:55.565Z,7.43
2022-10-17T13:18:28.810Z,7.75
2022-10-17T13:21:01.948Z,7.38
2022-10-17T13:23:36.620Z,8.07
2022-10-17T13:26:15.267Z,9.23
2022-10-17T13:28:44.770Z,7.32
2022-10-17T13:31:34.750Z,7.57
2022-10-17T13:34:05.700Z,8.27
2022-10-17T13:36:38.841Z,8.15
2022-10-17T13:39:19.689Z,7.25
2022-10-17T13:41:53.678Z,8.05
2022-10-17T13:44:23.538Z,7.22
2022-10-17T13:46:51.196Z,8.20
2022-10-17T13:49:25.716Z,7.60
2022-10-17T13:51:56.508Z,7.05
2022-10-17T13:54:45.183Z,7.13
2022-10-17T13:57:26.040Z,7.70
2022-10-17T13:59:57.495Z,6.65
2022-10-17T14:02:27.912Z,7.15
2022-10-17T14:05:18.156Z,7.32
2022-10-17T14:08:12.066Z,7.25
2022-10-17T14:10:43.702Z,6.47
2022-10-17T14:13:23.269Z,7.25
2022-10-17T14:15:51.444Z,8.15
2022-10-17T14:18:22.932Z,8.68
2022-10-17T14:23:41.715Z,7.55
2022-10-17T14:26:29.092Z,7.53
2022-10-17T14:29:07.855Z,7.68
2022-10-17T14:31:37.160Z,7.05
2022-10-17T14:34:05.563Z,7.07
2022-10-17T14:36:36.586Z,8.02
2022-10-17T14:39:08.494Z,7.70
2022-10-17T14:41:44.285Z,7.68
2022-10-17T14:46:54.583Z,7.15
2022-10-17T14:49:41.201Z,7.32
2022-10-17T14:52:17.707Z,8.20
2022-10-17T14:54:47.583Z,7.32
2022-10-17T14:57:41.064Z,7.13
2022-10-17T15:00:08.575Z,7.93
2022-10-17T15:02:36.389Z,7.53
2022-10-17T15:05:03.329Z,7.75
2022-10-17T15:07:30.249Z,7.50
2022-10-17T15:09:57.487Z,8.05
2022-10-17T15:12:25.973Z,7.95
2022-10-17T15:14:53.703Z,7.95
2022-10-17T15:17:25.529Z,7.85
2022-10-17T15:19:52.539Z,7.97
2022-10-17T15:22:19.889Z,7.88
2022-10-17T15:24:47.297Z,13.63
2022-10-17T15:27:23.491Z,8.20
2022-10-17T15:29:51.922Z,10.27
2022-10-17T15:32:19.101Z,13.45
2022-10-17T15:34:48.127Z,8.30
2022-10-17T15:37:24.608Z,8.55
2022-10-17T15:39:54.716Z,8.43
2022-10-17T15:42:27.271Z,8.63
2022-10-17T15:44:54.941Z,9.68
2022-10-17T15:47:28.904Z,8.98
2022-10-17T15:50:01.053Z,7.90
2022-10-17T15:52:28.670Z,9.10
2022-10-17T15:54:58.385Z,8.43
2022-10-17T15:57:30.891Z,9.30
2022-10-17T16:00:00.480Z,8.95
2022-10-17T16:02:29.521Z,8.93
2022-10-17T16:04:56.518Z,7.97
2022-10-17T16:07:26.615Z,11.57
2022-10-17T16:09:53.585Z,9.30
2022-10-17T16:12:29.199Z,9.02
2022-10-17T16:14:59.420Z,9.43
2022-10-17T16:17:32.446Z,8.57
2022-10-17T16:20:00.657Z,8.85
2022-10-17T16:22:32.738Z,9.50
2022-10-17T16:25:07.889Z,9.13
2022-10-17T16:27:37.778Z,8.93
2022-10-17T16:30:07.717Z,8.10
2022-10-17T16:32:35.253Z,9.35
2022-10-17T16:35:08.887Z,9.05
2022-10-17T16:37:36.324Z,9.75
2022-10-17T16:40:04.669Z,8.18
2022-10-17T16:42:46.511Z,8.55
2022-10-17T16:45:32.900Z,8.75
2022-10-17T16:47:59.949Z,9.27
2022-10-17T16:50:53.529Z,8.93
2022-10-17T16:53:20.597Z,9.77
2022-10-17T16:56:02.674Z,9.77
2022-10-17T16:58:32.661Z,8.95
2022-10-17T17:01:04.896Z,10.13
2022-10-17T17:03:43.914Z,9.23
2022-10-17T17:06:19.092Z,9.02
2022-10-17T17:08:46.242Z,9.75
2022-10-17T17:11:16.042Z,9.90
2022-10-17T17:13:42.938Z,9.52
2022-10-17T17:16:22.344Z,8.98
2022-10-17T17:18:54.210Z,8.90
2022-10-17T17:21:21.551Z,8.95
2022-10-17T17:23:49.284Z,9.43
2022-10-17T17:26:20.445Z,10.60
2022-10-17T17:28:50.148Z,8.95
2022-10-17T17:31:23.312Z,9.25
2022-10-17T17:33:52.234Z,9.40
2022-10-17T17:36:24.731Z,8.20
2022-10-17T17:38:54.540Z,8.77
2022-10-17T17:41:22.573Z,8.50
2022-10-17T17:43:51.413Z,8.25
2022-10-17T17:46:20.014Z,8.32
2022-10-17T17:48:49.395Z,8.82
2022-10-17T17:51:26.910Z,8.70
2022-10-17T17:53:57.600Z,8.05
2022-10-17T17:56:27.220Z,8.25
2022-10-17T17:58:59.330Z,8.48
2022-10-17T18:01:29.959Z,8.00
2022-10-17T18:04:01.198Z,7.22
2022-10-17T18:06:28.934Z,7.53
2022-10-17T18:08:58.438Z,7.80
2022-10-17T18:11:30.544Z,7.53
2022-10-17T18:14:02.171Z,7.97
2022-10-17T18:16:31.146Z,7.63
2022-10-17T18:19:04.093Z,7.45
2022-10-17T18:21:34.796Z,7.55
2022-10-17T18:24:03.379Z,8.38
2022-10-17T18:26:31.093Z,7.97
2022-10-17T18:28:59.198Z,7.03
2022-10-17T18:31:32.468Z,7.90
2022-10-17T18:34:03.086Z,6.50
2022-10-17T18:36:32.161Z,7.30
2022-10-17T18:39:01.084Z,6.97
2022-10-17T18:41:35.246Z,6.70
2022-10-17T18:44:05.827Z,7.80
2022-10-17T18:46:36.893Z,6.63
2022-10-17T18:49:04.177Z,6.78
2022-10-17T18:51:31.790Z,6.07
2022-10-17T18:53:59.271Z,6.60
2022-10-17T18:56:30.374Z,6.65
2022-10-17T18:58:58.613Z,7.40
2022-10-17T19:01:28.739Z,7.30
2022-10-17T19:03:58.343Z,6.25
2022-10-17T19:06:28.613Z,5.57
2022-10-17T19:08:56.657Z,5.80
2022-10-17T19:11:25.778Z,6.57
2022-10-17T19:13:53.597Z,5.45
2022-10-17T19:16:32.876Z,6.28
2022-10-17T19:19:02.945Z,5.30
2022-10-17T19:21:30.574Z,5.45
2022-10-17T19:24:01.221Z,5.70
2022-10-17T19:26:30.413Z,5.63
2022-10-17T19:28:57.629Z,7.18
2022-10-17T19:31:27.318Z,5.07
2022-10-17T19:33:55.790Z,5.22
2022-10-17T19:36:29.021Z,5.45
2022-10-17T19:39:00.148Z,5.65
2022-10-17T19:41:28.754Z,5.18
2022-10-17T19:43:56.127Z,7.45
2022-10-17T19:46:27.656Z,5.55
2022-10-17T19:48:55.162Z,5.57
2022-10-17T19:51:27.092Z,5.70
2022-10-17T19:53:56.012Z,5.50
2022-10-17T19:56:25.161Z,5.13
2022-10-17T19:58:54.535Z,5.80
2022-10-17T20:01:26.720Z,4.90
2022-10-17T20:03:59.941Z,5.50
2022-10-17T20:06:28.003Z,4.80
2022-10-17T20:09:04.957Z,5.32
2022-10-17T20:11:33.443Z,5.47
2022-10-17T20:14:08.099Z,5.05
2022-10-17T20:16:39.289Z,5.93
2022-10-17T20:19:10.541Z,7.93
2022-10-17T20:21:40.193Z,5.25
2022-10-17T20:24:35.546Z,5.68
2022-10-17T20:27:04.554Z,5.40
2022-10-17T20:29:38.737Z,5.30
2022-10-17T20:32:06.039Z,5.07
2022-10-17T20:34:38.097Z,6.22
2022-10-17T20:37:06.181Z,5.95
2022-10-17T20:39:44.294Z,5.40
2022-10-17T20:42:12.426Z,6.88
2022-10-17T20:44:48.715Z,5.55
2022-10-17T20:47:47.210Z,5.20
2022-10-17T20:50:46.554Z,5.50
2022-10-17T20:53:36.924Z,5.15
2022-10-17T20:56:13.653Z,5.30
2022-10-17T20:58:41.625Z,5.47
2022-10-17T21:01:26.734Z,5.20
2022-10-17T21:04:09.425Z,5.07
2022-10-17T21:06:52.134Z,5.30
2022-10-17T21:09:38.824Z,6.00
2022-10-17T21:12:05.929Z,5.38
2022-10-17T21:14:33.966Z,8.43
2022-10-17T21:17:04.669Z,4.93
2022-10-17T21:19:50.406Z,5.10
2022-10-17T21:22:37.640Z,5.43
2022-10-17T21:25:11.702Z,5.53
2022-10-17T21:27:58.070Z,5.28
2022-10-17T21:30:25.040Z,7.30
2022-10-17T21:33:01.284Z,5.40
2022-10-17T21:35:29.260Z,5.70
2022-10-17T21:37:58.335Z,5.60
2022-10-17T21:40:25.407Z,4.68
2022-10-17T21:42:53.406Z,5.60
2022-10-17T21:45:29.778Z,7.22
2022-10-17T21:48:14.996Z,8.07
2022-10-17T21:50:42.009Z,6.95
2022-10-17T21:53:29.599Z,5.60
2022-10-17T21:56:01.617Z,5.50
2022-10-17T21:58:34.036Z,5.88
2022-10-17T22:01:15.429Z,5.00
2022-10-17T22:03:46.787Z,5.57
2022-10-17T22:06:44.000Z,5.18
2022-10-17T22:09:23.974Z,4.90
2022-10-17T22:11:54.173Z,5.60
2022-10-17T22:14:25.362Z,5.32
2022-10-17T22:16:59.589Z,5.43
2022-10-17T22:19:39.612Z,5.20
2022-10-17T22:22:25.016Z,5.32
2022-10-17T22:24:56.003Z,5.53
2022-10-17T22:27:24.947Z,6.50
2022-10-17T22:29:57.945Z,5.43
2022-10-17T22:32:24.962Z,5.03
2022-10-17T22:34:51.911Z,6.30
2022-10-17T22:37:19.901Z,5.05
2022-10-17T22:39:47.890Z,10.00
2022-10-17T22:42:15.462Z,5.00
2022-10-17T22:44:46.721Z,4.72
2022-10-17T22:47:14.725Z,5.13
2022-10-17T22:49:42.677Z,5.10
2022-10-17T22:52:17.665Z,4.95
2022-10-17T22:54:51.477Z,5.80
2022-10-17T22:59:50.383Z,4.55
2022-10-17T23:02:19.353Z,4.70
2022-10-17T23:04:49.478Z,4.43
2022-10-17T23:07:46.648Z,5.40
2022-10-17T23:10:13.577Z,5.40
2022-10-17T23:12:41.501Z,4.38
2022-10-17T23:15:09.083Z,4.72
2022-10-17T23:17:40.175Z,9.75
2022-10-17T23:20:07.734Z,9.27
2022-10-17T23:22:35.636Z,4.90
2022-10-17T23:25:04.882Z,6.82
2022-10-17T23:27:36.064Z,4.80
2022-10-17T23:30:05.263Z,5.22
2022-10-17T23:32:40.994Z,6.95
2022-10-17T23:35:08.866Z,17.02
2022-10-17T23:37:42.885Z,5.18
2022-10-17T23:40:17.203Z,5.30
2022-10-17T23:42:45.520Z,5.15
2022-10-17T23:45:12.631Z,5.00
2022-10-17T23:47:39.685Z,5.50
2022-10-17T23:50:09.838Z,6.95
2022-10-17T23:52:36.893Z,6.60
2022-10-17T23:55:08.646Z,5.10
2022-10-17T23:57:41.602Z,5.00
